Time;durP1;ratioP1;P1;durP2;ratioP2;P2;SDS_P1;SDS_P2;PMS_P1;PMS_P2;Temp;Humidity;BMP_temperature;BMP_pressure;BME280_temperature;BME280_humidity;BME280_pressure;Samples;Min_cycle;Max_cycle;Signal;HPM_P1;HPM_P2
2021/11/22 00:00:13;;;;;;;5.10;2.10;;;6.30;94.70;;;;;;5054523;28;20389;-71
2021/11/22 00:02:40;;;;;;;5.18;2.00;;;6.30;94.70;;;;;;5050477;28;20041;-70
2021/11/22 00:05:06;;;;;;;3.05;1.98;;;6.20;94.70;;;;;;5051060;28;20173;-70
2021/11/22 00:07:32;;;;;;;4.50;1.75;;;6.20;94.70;;;;;;5054537;28;20370;-69
2021/11/22 00:09:58;;;;;;;5.53;2.00;;;6.20;94.70;;;;;;5044044;28;20033;-68
2021/11/22 00:12:26;;;;;;;3.92;2.10;;;6.10;94.70;;;;;;5050861;28;20694;-71
2021/11/22 00:14:52;;;;;;;6.63;2.03;;;6.10;94.60;;;;;;5046406;28;20037;-70
2021/11/22 00:17:17;;;;;;;4.57;2.47;;;6.10;94.60;;;;;;5053665;28;20032;-69
2021/11/22 00:19:45;;;;;;;2.90;2.03;;;6.10;94.50;;;;;;5052722;28;20032;-69
2021/11/22 00:22:11;;;;;;;3.00;1.73;;;6.10;94.50;;;;;;5046633;28;20025;-70
2021/11/22 00:24:36;;;;;;;2.95;1.60;;;6.10;94.50;;;;;;5041106;28;20029;-70
2021/11/22 00:27:02;;;;;;;5.70;2.08;;;6.20;94.70;;;;;;5041738;28;20028;-70
2021/11/22 00:29:28;;;;;;;3.58;1.73;;;6.20;94.70;;;;;;5049704;28;20040;-70
2021/11/22 00:32:15;;;;;;;5.53;2.38;;;6.20;94.70;;;;;;5059632;28;20571;-71
2021/11/22 00:35:00;;;;;;;3.17;2.00;;;6.30;94.80;;;;;;5045227;28;20782;-70
2021/11/22 00:37:38;;;;;;;2.97;1.80;;;6.30;94.70;;;;;;5047331;28;20654;-70
2021/11/22 00:40:08;;;;;;;4.10;1.85;;;6.30;94.80;;;;;;5044099;28;20087;-69
2021/11/22 00:42:34;;;;;;;4.78;2.03;;;6.40;94.70;;;;;;5047325;28;20029;-68
2021/11/22 00:45:00;;;;;;;4.88;2.20;;;6.50;94.60;;;;;;5046816;28;20037;-71
2021/11/22 00:47:26;;;;;;;5.22;2.10;;;6.50;94.60;;;;;;5050744;28;20051;-70
2021/11/22 00:49:52;;;;;;;4.60;2.05;;;6.60;94.50;;;;;;5052353;28;20032;-74
2021/11/22 00:52:18;;;;;;;7.43;2.80;;;6.70;94.50;;;;;;5057312;28;20040;-72
2021/11/22 00:54:44;;;;;;;6.35;2.40;;;6.70;94.50;;;;;;5045748;28;20032;-73
2021/11/22 00:57:09;;;;;;;11.90;2.53;;;6.80;94.30;;;;;;5051602;28;20060;-73
2021/11/22 00:59:35;;;;;;;6.32;2.63;;;6.80;94.30;;;;;;5049793;28;20822;-73
2021/11/22 01:02:02;;;;;;;3.67;1.83;;;6.80;94.40;;;;;;5042212;28;20504;-72
2021/11/22 01:04:28;;;;;;;4.43;2.42;;;6.90;94.30;;;;;;5045657;28;20124;-73
2021/11/22 01:06:54;;;;;;;6.97;2.60;;;6.90;94.30;;;;;;5051487;28;20033;-74
2021/11/22 01:09:20;;;;;;;5.07;2.08;;;7.00;94.30;;;;;;5057124;28;20463;-73
2021/11/22 01:11:46;;;;;;;5.07;2.15;;;7.00;94.30;;;;;;5061116;28;20045;-74
2021/11/22 01:14:13;;;;;;;6.25;2.20;;;7.00;94.20;;;;;;5060200;28;20133;-74
2021/11/22 01:16:40;;;;;;;6.13;2.20;;;7.10;94.20;;;;;;5051880;28;20025;-73
2021/11/22 01:19:07;;;;;;;4.75;2.05;;;7.10;94.00;;;;;;5049269;28;20028;-75
2021/11/22 01:21:34;;;;;;;2.70;1.65;;;7.10;94.00;;;;;;5041455;28;20033;-73
2021/11/22 01:24:00;;;;;;;3.55;2.10;;;7.10;94.10;;;;;;5043788;28;20385;-73
2021/11/22 01:26:25;;;;;;;4.43;2.20;;;7.10;94.10;;;;;;5048219;28;20032;-75
2021/11/22 01:28:51;;;;;;;5.22;2.10;;;7.10;94.00;;;;;;5044366;28;20021;-74
2021/11/22 01:31:18;;;;;;;4.78;2.85;;;7.10;94.00;;;;;;5047887;28;20531;-72
2021/11/22 01:33:44;;;;;;;5.20;1.98;;;7.10;94.00;;;;;;5049313;28;20025;-74
2021/11/22 01:36:10;;;;;;;5.15;2.33;;;7.10;94.10;;;;;;5044922;28;20040;-75
2021/11/22 01:38:36;;;;;;;3.30;2.00;;;7.20;94.00;;;;;;5051884;28;20041;-73
2021/11/22 01:41:03;;;;;;;5.90;2.10;;;7.20;93.90;;;;;;5049419;28;20140;-74
2021/11/22 01:43:33;;;;;;;4.90;2.00;;;7.20;94.00;;;;;;5054347;28;20032;-73
2021/11/22 01:45:59;;;;;;;5.18;1.98;;;7.20;93.70;;;;;;5051566;28;20094;-74
2021/11/22 01:48:25;;;;;;;8.27;2.03;;;7.10;93.80;;;;;;5052118;28;20043;-72
2021/11/22 01:50:55;;;;;;;5.80;2.38;;;7.10;93.80;;;;;;5048650;28;20044;-74
2021/11/22 01:53:23;;;;;;;5.68;2.50;;;7.10;93.90;;;;;;5048824;28;20799;-74
2021/11/22 01:55:51;;;;;;;4.78;2.20;;;7.20;93.90;;;;;;5048119;28;20044;-74
2021/11/22 01:58:17;;;;;;;3.13;1.98;;;7.20;93.80;;;;;;5052422;28;20090;-73
2021/11/22 02:00:50;;;;;;;5.13;2.20;;;7.20;93.70;;;;;;5049680;28;20103;-73
2021/11/22 02:03:17;;;;;;;3.92;2.25;;;7.30;93.70;;;;;;5044284;28;20111;-74
2021/11/22 02:05:44;;;;;;;6.20;2.70;;;7.30;93.60;;;;;;5048180;28;20036;-73
2021/11/22 02:08:12;;;;;;;4.40;2.05;;;7.30;93.70;;;;;;5048340;28;20029;-74
2021/11/22 02:10:38;;;;;;;6.60;2.40;;;7.30;93.60;;;;;;5030924;28;20025;-73
2021/11/22 02:13:05;;;;;;;5.65;2.30;;;7.20;93.70;;;;;;5045646;28;20505;-73
2021/11/22 02:15:32;;;;;;;4.82;2.17;;;7.20;93.70;;;;;;5049771;28;20115;-73
2021/11/22 02:17:58;;;;;;;3.53;1.85;;;7.20;93.80;;;;;;5042447;28;20029;-74
2021/11/22 02:20:27;;;;;;;4.38;2.13;;;7.20;93.80;;;;;;5048438;28;20033;-74
2021/11/22 02:22:59;;;;;;;2.50;1.85;;;7.20;93.90;;;;;;5054406;28;20071;-73
2021/11/22 02:25:27;;;;;;;3.88;2.03;;;7.20;93.90;;;;;;5040163;28;20025;-73
2021/11/22 02:27:54;;;;;;;6.28;2.03;;;7.10;94.00;;;;;;5044934;28;20060;-73
2021/11/22 02:30:24;;;;;;;3.58;2.10;;;7.10;94.10;;;;;;5047942;28;20056;-73
2021/11/22 02:32:50;;;;;;;3.97;1.63;;;7.10;94.10;;;;;;5050718;28;21052;-73
2021/11/22 02:35:20;;;;;;;3.70;1.85;;;7.10;94.10;;;;;;5049172;28;20440;-73
2021/11/22 02:37:47;;;;;;;4.45;1.60;;;7.10;94.10;;;;;;5046083;28;20029;-73
2021/11/22 02:40:14;;;;;;;2.40;1.40;;;7.10;94.20;;;;;;5049562;28;20032;-73
2021/11/22 02:42:44;;;;;;;2.97;1.58;;;7.20;94.10;;;;;;5049906;28;20506;-73
2021/11/22 02:45:11;;;;;;;3.95;1.52;;;7.20;94.00;;;;;;5041782;28;20035;-73
2021/11/22 02:47:38;;;;;;;3.83;1.33;;;7.20;94.10;;;;;;5045735;28;20091;-73
2021/11/22 02:50:05;;;;;;;3.22;1.60;;;7.20;94.10;;;;;;5047863;28;20536;-73
2021/11/22 02:52:31;;;;;;;2.08;1.42;;;7.20;94.10;;;;;;5055825;28;20032;-73
2021/11/22 02:54:57;;;;;;;8.18;2.03;;;7.20;94.10;;;;;;5049598;28;20082;-73
2021/11/22 02:57:23;;;;;;;2.70;1.30;;;7.10;94.10;;;;;;5048492;28;20512;-73
2021/11/22 02:59:49;;;;;;;3.33;1.38;;;7.10;94.00;;;;;;5050378;28;20798;-73
2021/11/22 03:02:15;;;;;;;3.85;1.55;;;7.10;94.00;;;;;;5039636;28;20061;-73
2021/11/22 03:04:43;;;;;;;1.23;1.10;;;7.10;94.10;;;;;;5044720;28;20111;-73
2021/11/22 03:07:11;;;;;;;1.83;1.10;;;7.20;94.10;;;;;;5049915;28;20036;-73
2021/11/22 03:09:37;;;;;;;2.38;1.40;;;7.20;94.00;;;;;;5051692;28;20040;-73
2021/11/22 03:12:08;;;;;;;4.70;1.42;;;7.20;94.10;;;;;;5051423;28;20036;-73
2021/11/22 03:14:34;;;;;;;2.20;1.17;;;7.20;94.10;;;;;;5047159;28;20086;-73
2021/11/22 03:17:01;;;;;;;3.97;1.50;;;7.20;94.00;;;;;;5049244;28;20123;-73
2021/11/22 03:19:27;;;;;;;5.53;1.40;;;7.30;93.90;;;;;;5049991;28;20430;-73
2021/11/22 03:21:54;;;;;;;5.15;1.50;;;7.30;94.00;;;;;;5051021;28;20032;-73
2021/11/22 03:24:20;;;;;;;0.90;0.90;;;7.30;94.00;;;;;;5048440;28;20028;-73
2021/11/22 03:26:46;;;;;;;3.30;1.23;;;7.30;94.00;;;;;;5049368;28;20036;-74
2021/11/22 03:29:12;;;;;;;1.95;1.13;;;7.30;94.00;;;;;;5051896;28;20120;-73
2021/11/22 03:31:39;;;;;;;2.83;1.60;;;7.30;94.00;;;;;;5050542;28;20052;-73
2021/11/22 03:34:06;;;;;;;1.98;1.38;;;7.30;94.00;;;;;;5052643;28;20128;-73
2021/11/22 03:36:33;;;;;;;2.63;1.20;;;7.30;93.90;;;;;;5054989;28;20029;-73
2021/11/22 03:39:01;;;;;;;1.98;0.90;;;7.30;93.90;;;;;;5042695;28;20622;-74
2021/11/22 03:41:31;;;;;;;3.75;1.08;;;7.30;93.90;;;;;;5048241;28;20040;-74
2021/11/22 03:44:10;;;;;;;1.52;1.05;;;7.30;93.90;;;;;;5051296;28;20035;-73
2021/11/22 03:46:37;;;;;;;2.08;1.10;;;7.30;93.90;;;;;;5055023;28;20036;-73
2021/11/22 03:49:03;;;;;;;2.75;1.05;;;7.30;94.00;;;;;;5048682;28;20111;-73
2021/11/22 03:51:28;;;;;;;3.38;1.40;;;7.20;93.90;;;;;;5051104;28;20149;-73
2021/11/22 03:53:54;;;;;;;1.27;0.98;;;7.20;93.90;;;;;;5041727;28;20046;-73
2021/11/22 03:56:21;;;;;;;2.00;1.30;;;7.20;94.00;;;;;;5054870;28;20039;-73
2021/11/22 03:58:47;;;;;;;2.47;0.90;;;7.20;93.90;;;;;;5049991;28;20040;-73
2021/11/22 04:01:12;;;;;;;1.55;1.05;;;7.30;93.90;;;;;;5050472;28;20029;-73
2021/11/22 04:03:38;;;;;;;2.28;1.10;;;7.20;93.70;;;;;;5049745;28;20036;-73
2021/11/22 04:06:04;;;;;;;3.65;1.10;;;7.20;93.80;;;;;;5045148;28;20033;-73
2021/11/22 04:08:30;;;;;;;1.38;1.00;;;7.20;93.90;;;;;;5045699;28;20044;-74
2021/11/22 04:10:56;;;;;;;6.03;0.90;;;7.30;93.90;;;;;;5051341;28;20151;-73
2021/11/22 04:13:23;;;;;;;1.70;0.88;;;7.30;93.80;;;;;;5049275;28;20041;-73
2021/11/22 04:15:49;;;;;;;3.67;1.15;;;7.30;93.80;;;;;;5053175;28;20036;-74
2021/11/22 04:18:15;;;;;;;1.67;0.80;;;7.30;93.90;;;;;;5044938;28;20209;-73
2021/11/22 04:20:42;;;;;;;1.88;1.00;;;7.30;93.90;;;;;;5053681;28;20141;-73
2021/11/22 04:23:09;;;;;;;2.13;1.08;;;7.30;94.20;;;;;;5055360;28;20028;-74
2021/11/22 04:25:35;;;;;;;1.35;0.77;;;7.30;93.90;;;;;;5050438;28;20032;-74
2021/11/22 04:28:02;;;;;;;0.77;0.77;;;7.30;93.90;;;;;;5044811;28;20029;-73
2021/11/22 04:30:30;;;;;;;1.25;0.82;;;7.30;93.90;;;;;;5046929;28;20028;-74
2021/11/22 04:32:56;;;;;;;1.95;0.80;;;7.20;94.00;;;;;;5050588;28;20037;-74
2021/11/22 04:35:22;;;;;;;1.33;0.80;;;7.20;94.20;;;;;;5051264;28;20029;-74
2021/11/22 04:37:48;;;;;;;1.90;0.70;;;7.20;93.90;;;;;;5045057;28;20036;-74
2021/11/22 04:40:17;;;;;;;3.58;0.80;;;7.20;94.10;;;;;;5055373;28;20063;-74
2021/11/22 04:42:47;;;;;;;2.05;0.77;;;7.20;93.90;;;;;;5050131;28;20082;-73
2021/11/22 04:45:14;;;;;;;1.55;0.70;;;7.20;93.90;;;;;;5047386;28;20025;-73
2021/11/22 04:47:40;;;;;;;5.05;0.77;;;7.20;93.90;;;;;;5044879;28;20055;-74
2021/11/22 04:50:07;;;;;;;0.70;0.50;;;7.20;93.90;;;;;;5046375;28;20017;-74
2021/11/22 04:52:34;;;;;;;0.50;0.50;;;7.20;93.90;;;;;;5045752;28;20030;-73
2021/11/22 04:55:00;;;;;;;1.10;0.88;;;7.30;94.00;;;;;;5050117;28;20044;-73
2021/11/22 04:57:26;;;;;;;1.85;0.68;;;7.30;93.90;;;;;;5048082;28;20036;-73
2021/11/22 04:59:52;;;;;;;1.13;0.63;;;7.30;93.80;;;;;;5048507;28;20036;-73
2021/11/22 05:02:18;;;;;;;2.33;0.65;;;7.30;93.80;;;;;;5047346;28;20039;-73
2021/11/22 05:04:44;;;;;;;4.05;1.17;;;7.30;93.80;;;;;;5050163;28;20080;-73
2021/11/22 05:07:15;;;;;;;0.95;0.55;;;7.20;93.90;;;;;;5048165;28;20301;-73
2021/11/22 05:09:42;;;;;;;5.43;0.80;;;7.30;93.90;;;;;;5041160;28;20036;-73
2021/11/22 05:12:07;;;;;;;1.33;0.40;;;7.30;93.80;;;;;;5046310;28;20373;-74
2021/11/22 05:14:33;;;;;;;1.40;0.40;;;7.30;93.70;;;;;;5048435;28;20052;-74
2021/11/22 05:16:59;;;;;;;1.77;0.50;;;7.30;93.60;;;;;;5052406;28;20044;-74
2021/11/22 05:19:30;;;;;;;1.73;0.60;;;7.30;93.60;;;;;;5043783;28;20785;-73
2021/11/22 05:21:57;;;;;;;1.63;0.40;;;7.30;93.70;;;;;;5045600;28;20102;-75
2021/11/22 05:24:23;;;;;;;0.65;0.38;;;7.20;93.70;;;;;;5051006;28;20738;-75
2021/11/22 05:26:49;;;;;;;0.75;0.60;;;7.20;93.60;;;;;;5055997;28;20074;-75
2021/11/22 05:29:16;;;;;;;1.02;0.57;;;7.10;93.50;;;;;;5048001;28;20923;-75
2021/11/22 05:31:42;;;;;;;1.42;0.40;;;7.10;93.70;;;;;;5047303;28;20040;-75
2021/11/22 05:34:08;;;;;;;0.38;0.38;;;7.00;93.70;;;;;;5047244;28;20468;-75
2021/11/22 05:36:36;;;;;;;1.13;0.50;;;6.90;93.70;;;;;;5040426;28;20033;-75
2021/11/22 05:39:06;;;;;;;2.05;0.40;;;6.90;93.70;;;;;;5045536;28;20032;-75
2021/11/22 05:41:32;;;;;;;0.90;0.30;;;6.70;93.60;;;;;;5046174;28;20025;-75
2021/11/22 05:43:58;;;;;;;2.20;0.50;;;6.60;93.90;;;;;;5047179;28;20055;-75
2021/11/22 05:46:24;;;;;;;4.53;0.50;;;6.60;93.90;;;;;;5053727;28;20559;-75
2021/11/22 05:48:51;;;;;;;2.33;0.50;;;6.60;93.90;;;;;;5051909;28;20043;-75
2021/11/22 05:51:18;;;;;;;0.80;0.80;;;6.50;93.90;;;;;;5043487;28;20037;-75
2021/11/22 05:53:48;;;;;;;0.38;0.30;;;6.60;93.80;;;;;;5051183;28;20095;-75
2021/11/22 05:56:15;;;;;;;0.93;0.40;;;6.60;93.70;;;;;;5048340;28;20071;-75
2021/11/22 05:58:44;;;;;;;0.35;0.30;;;6.50;93.70;;;;;;5048201;28;20119;-75
2021/11/22 06:01:10;;;;;;;0.85;0.57;;;6.60;93.80;;;;;;5043992;28;20035;-75
2021/11/22 06:03:35;;;;;;;0.68;0.45;;;6.60;93.80;;;;;;5046764;28;20032;-75
2021/11/22 06:06:02;;;;;;;1.38;0.47;;;6.60;93.80;;;;;;5045633;28;20488;-75
2021/11/22 06:08:28;;;;;;;0.73;0.50;;;6.60;93.70;;;;;;5051257;28;20496;-75
2021/11/22 06:10:54;;;;;;;0.50;0.38;;;6.60;93.70;;;;;;5048209;28;20040;-75
2021/11/22 06:13:21;;;;;;;0.43;0.40;;;6.50;93.80;;;;;;5043219;28;20056;-75
2021/11/22 06:15:47;;;;;;;0.90;0.47;;;6.50;93.70;;;;;;5052090;28;20048;-75
2021/11/22 06:18:15;;;;;;;2.03;0.60;;;6.50;93.70;;;;;;5043564;28;20039;-75
2021/11/22 06:20:41;;;;;;;1.08;0.60;;;6.50;93.70;;;;;;5044415;28;20048;-75
2021/11/22 06:23:07;;;;;;;0.30;0.30;;;6.50;93.70;;;;;;5048076;28;20033;-75
2021/11/22 06:25:34;;;;;;;2.00;0.60;;;6.50;93.60;;;;;;5050799;28;20032;-75
2021/11/22 06:28:01;;;;;;;1.55;0.43;;;6.50;94.00;;;;;;5046973;28;20068;-75
2021/11/22 06:30:27;;;;;;;1.45;0.75;;;6.50;93.70;;;;;;5048990;28;20036;-74
2021/11/22 06:32:53;;;;;;;0.43;0.40;;;6.40;93.60;;;;;;5050077;28;20067;-75
2021/11/22 06:35:20;;;;;;;0.60;0.38;;;6.30;93.60;;;;;;5048280;28;20682;-75
2021/11/22 06:37:47;;;;;;;1.13;0.35;;;6.30;93.70;;;;;;5042038;28;20024;-75
2021/11/22 06:40:14;;;;;;;0.60;0.30;;;6.20;93.60;;;;;;5047175;28;20455;-75
2021/11/22 06:42:40;;;;;;;0.30;0.30;;;6.10;93.60;;;;;;5045308;28;20032;-75
2021/11/22 06:45:07;;;;;;;0.93;0.60;;;5.90;93.60;;;;;;5044951;28;20028;-75
2021/11/22 06:47:34;;;;;;;0.20;0.20;;;5.80;93.70;;;;;;5046347;28;20046;-75
2021/11/22 06:50:01;;;;;;;0.30;0.30;;;5.60;93.80;;;;;;5047362;28;20047;-75
2021/11/22 06:52:27;;;;;;;1.40;0.50;;;5.60;93.80;;;;;;5046394;28;20409;-75
2021/11/22 06:54:56;;;;;;;0.30;0.30;;;5.50;93.80;;;;;;5045112;28;20036;-75
2021/11/22 06:57:22;;;;;;;0.60;0.43;;;5.40;93.80;;;;;;5048663;28;20032;-75
2021/11/22 06:59:49;;;;;;;1.25;0.65;;;5.40;93.80;;;;;;5044390;28;20024;-75
2021/11/22 07:02:18;;;;;;;1.05;0.50;;;5.30;93.80;;;;;;5045550;28;20032;-75
2021/11/22 07:04:45;;;;;;;0.38;0.38;;;5.20;93.90;;;;;;5043287;28;20084;-75
2021/11/22 07:07:13;;;;;;;0.45;0.25;;;5.10;93.90;;;;;;5045315;28;20039;-75
2021/11/22 07:09:39;;;;;;;0.30;0.28;;;5.00;94.00;;;;;;5049210;28;20068;-75
2021/11/22 07:12:06;;;;;;;0.60;0.20;;;4.90;94.10;;;;;;5042137;28;20040;-75
2021/11/22 07:14:35;;;;;;;4.38;0.40;;;4.90;94.20;;;;;;5046302;28;20036;-74
2021/11/22 07:17:01;;;;;;;0.30;0.30;;;4.90;94.30;;;;;;5048927;28;20045;-75
2021/11/22 07:19:27;;;;;;;1.88;0.80;;;4.90;94.20;;;;;;5053504;28;20046;-75
2021/11/22 07:21:53;;;;;;;2.22;0.88;;;4.90;94.20;;;;;;5043704;28;21019;-75
2021/11/22 07:24:20;;;;;;;2.35;0.70;;;4.90;94.30;;;;;;5043001;28;20209;-75
2021/11/22 07:26:46;;;;;;;2.08;0.85;;;4.90;94.30;;;;;;5051622;28;20040;-74
2021/11/22 07:29:15;;;;;;;0.63;0.40;;;4.90;94.30;;;;;;5048228;28;20742;-74
2021/11/22 07:31:41;;;;;;;0.45;0.40;;;5.00;94.50;;;;;;5046758;28;20024;-74
2021/11/22 07:34:07;;;;;;;1.65;0.52;;;5.10;94.30;;;;;;5042346;28;20669;-75
2021/11/22 07:36:33;;;;;;;1.23;0.40;;;5.20;94.50;;;;;;5047952;28;20021;-75
2021/11/22 07:38:58;;;;;;;3.17;0.43;;;5.20;94.30;;;;;;5042565;28;20029;-75
2021/11/22 07:41:24;;;;;;;0.47;0.40;;;5.20;94.40;;;;;;5046600;28;20029;-75
2021/11/22 07:43:50;;;;;;;1.15;0.50;;;5.20;94.50;;;;;;5045619;28;20021;-75
2021/11/22 07:46:17;;;;;;;0.52;0.52;;;5.20;94.30;;;;;;5042681;28;20076;-75
2021/11/22 07:48:43;;;;;;;1.58;0.80;;;5.30;94.40;;;;;;5048112;28;20090;-74
2021/11/22 07:51:09;;;;;;;0.65;0.45;;;5.30;94.40;;;;;;5045699;28;20444;-75
2021/11/22 07:53:35;;;;;;;0.98;0.60;;;5.30;94.30;;;;;;5047101;28;20049;-74
2021/11/22 07:56:03;;;;;;;0.70;0.40;;;5.30;94.30;;;;;;5048072;28;20047;-75
2021/11/22 07:58:28;;;;;;;1.02;0.52;;;5.40;94.20;;;;;;5048658;28;20052;-74
2021/11/22 08:00:54;;;;;;;3.25;0.68;;;5.50;94.10;;;;;;5044517;28;20052;-75
2021/11/22 08:03:20;;;;;;;1.40;0.60;;;5.60;94.00;;;;;;5046452;28;20044;-75
2021/11/22 08:05:49;;;;;;;2.13;0.57;;;5.70;94.10;;;;;;5049134;28;20037;-75
2021/11/22 08:08:16;;;;;;;0.93;0.60;;;5.80;94.00;;;;;;5045321;28;20119;-75
2021/11/22 08:10:47;;;;;;;0.70;0.40;;;6.00;94.00;;;;;;5042675;28;20095;-75
2021/11/22 08:13:12;;;;;;;1.60;0.43;;;6.10;93.60;;;;;;5048456;28;20047;-75
2021/11/22 08:15:39;;;;;;;1.20;0.50;;;6.20;93.40;;;;;;5052603;28;20032;-75
2021/11/22 08:18:07;;;;;;;1.67;0.60;;;6.20;93.20;;;;;;5051813;28;20094;-75
2021/11/22 08:20:35;;;;;;;1.20;0.60;;;6.30;93.20;;;;;;5046418;28;20037;-75
2021/11/22 08:23:01;;;;;;;3.50;0.60;;;6.30;93.10;;;;;;5048163;28;20456;-75
2021/11/22 08:25:32;;;;;;;1.25;0.70;;;6.40;93.00;;;;;;5031750;28;20378;-75
2021/11/22 08:27:58;;;;;;;1.42;1.00;;;6.50;93.10;;;;;;5048235;28;20407;-75
2021/11/22 08:30:26;;;;;;;0.85;0.70;;;6.60;93.00;;;;;;5048106;28;20083;-75
2021/11/22 08:32:56;;;;;;;2.15;0.70;;;6.80;92.50;;;;;;5049020;28;20041;-75
2021/11/22 08:35:22;;;;;;;0.40;0.40;;;7.10;92.00;;;;;;5052939;28;20037;-75
2021/11/22 08:37:48;;;;;;;0.68;0.60;;;7.10;91.50;;;;;;5044849;28;20028;-75
2021/11/22 08:40:21;;;;;;;1.67;0.60;;;7.40;91.10;;;;;;5042448;28;20057;-75
2021/11/22 08:42:47;;;;;;;1.10;0.85;;;8.40;87.60;;;;;;5046030;28;20064;-75
2021/11/22 08:45:14;;;;;;;1.35;0.80;;;8.70;85.30;;;;;;5048019;28;20033;-75
2021/11/22 08:47:40;;;;;;;1.42;0.47;;;8.60;85.70;;;;;;5052209;28;20762;-73
2021/11/22 08:50:07;;;;;;;0.95;0.40;;;8.30;86.80;;;;;;5048790;28;20032;-75
2021/11/22 08:52:34;;;;;;;0.65;0.50;;;8.20;87.50;;;;;;5045396;28;20143;-75
2021/11/22 08:55:01;;;;;;;0.50;0.50;;;8.20;86.40;;;;;;5048537;28;20032;-75
2021/11/22 08:57:27;;;;;;;1.17;0.40;;;8.50;86.40;;;;;;5041678;28;20032;-75
2021/11/22 08:59:54;;;;;;;2.33;0.70;;;11.50;74.50;;;;;;5046262;28;20602;-75
2021/11/22 09:02:21;;;;;;;0.75;0.50;;;16.80;55.60;;;;;;5044077;28;20040;-73
2021/11/22 09:04:49;;;;;;;1.83;1.00;;;20.70;45.80;;;;;;5048501;28;20025;-73
2021/11/22 09:07:16;;;;;;;0.88;0.57;;;22.70;40.20;;;;;;5046751;28;20037;-73
2021/11/22 09:09:43;;;;;;;1.58;0.40;;;24.20;36.20;;;;;;5053218;28;20098;-73
2021/11/22 09:12:09;;;;;;;0.55;0.40;;;26.20;34.00;;;;;;5048978;28;20328;-73
2021/11/22 09:14:35;;;;;;;0.45;0.45;;;28.10;31.30;;;;;;5048300;28;20037;-74
2021/11/22 09:17:01;;;;;;;0.35;0.35;;;29.30;29.30;;;;;;5045523;28;20036;-73
2021/11/22 09:19:27;;;;;;;0.90;0.70;;;29.00;29.00;;;;;;5049006;28;20043;-73
2021/11/22 09:21:53;;;;;;;0.40;0.40;;;27.00;30.60;;;;;;5048868;28;20408;-73
2021/11/22 09:24:19;;;;;;;0.25;0.20;;;23.90;34.10;;;;;;5043551;28;20352;-73
2021/11/22 09:26:45;;;;;;;0.50;0.40;;;20.90;39.10;;;;;;5045507;28;20033;-75
2021/11/22 09:29:11;;;;;;;0.73;0.40;;;18.80;43.20;;;;;;5047619;28;20029;-73
2021/11/22 09:31:37;;;;;;;1.45;0.50;;;17.20;46.10;;;;;;5050693;28;20039;-73
2021/11/22 09:34:03;;;;;;;0.60;0.50;;;15.90;49.30;;;;;;5042783;28;20190;-75
2021/11/22 09:36:29;;;;;;;0.70;0.32;;;14.90;51.70;;;;;;5042149;28;20112;-74
2021/11/22 09:38:55;;;;;;;0.38;0.38;;;14.40;53.60;;;;;;5046111;28;20033;-73
2021/11/22 09:41:27;;;;;;;0.30;0.30;;;13.60;54.40;;;;;;5046002;28;20078;-72
2021/11/22 09:43:55;;;;;;;1.30;0.63;;;12.60;58.50;;;;;;5044726;28;20124;-76
2021/11/22 09:46:22;;;;;;;1.15;0.90;;;11.70;61.40;;;;;;5050472;28;20070;-75
2021/11/22 09:48:48;;;;;;;0.55;0.50;;;11.10;64.60;;;;;;5045072;28;20041;-75
2021/11/22 09:51:14;;;;;;;1.25;0.68;;;10.50;66.40;;;;;;5051275;28;20483;-76
2021/11/22 09:53:41;;;;;;;0.85;0.50;;;10.10;68.30;;;;;;5053842;28;20040;-74
2021/11/22 09:56:09;;;;;;;0.45;0.40;;;9.90;68.80;;;;;;5054460;28;20032;-75
2021/11/22 09:58:35;;;;;;;1.25;0.38;;;9.70;70.50;;;;;;5050472;28;20048;-71
2021/11/22 10:01:09;;;;;;;1.08;0.47;;;9.60;70.40;;;;;;5042834;28;20025;-73
2021/11/22 10:03:35;;;;;;;0.70;0.45;;;9.50;70.00;;;;;;5049798;28;20032;-75
2021/11/22 10:06:02;;;;;;;0.90;0.60;;;9.40;72.90;;;;;;5047969;28;20115;-74
2021/11/22 10:08:36;;;;;;;2.38;0.52;;;9.30;73.90;;;;;;5046912;28;20234;-75
2021/11/22 10:11:02;;;;;;;0.50;0.50;;;9.20;74.40;;;;;;5043958;28;20036;-75
2021/11/22 10:13:29;;;;;;;0.77;0.70;;;9.40;73.80;;;;;;5045924;28;20083;-75
2021/11/22 10:16:17;;;;;;;5.78;2.67;;;9.40;74.50;;;;;;5048739;28;20390;-74
2021/11/22 10:18:46;;;;;;;0.52;0.45;;;9.40;73.60;;;;;;5042968;28;20043;-73
2021/11/22 10:21:16;;;;;;;1.90;0.50;;;9.40;73.50;;;;;;5044333;28;20090;-73
2021/11/22 10:23:45;;;;;;;2.50;0.80;;;9.40;70.60;;;;;;5046067;28;20021;-75
2021/11/22 10:26:15;;;;;;;3.47;0.70;;;9.30;72.10;;;;;;5044902;28;20033;-75
2021/11/22 10:28:50;;;;;;;1.50;0.50;;;9.10;72.70;;;;;;5041406;28;20087;-74
2021/11/22 10:31:20;;;;;;;1.58;0.80;;;9.00;72.20;;;;;;5046005;28;20484;-76
2021/11/22 10:33:49;;;;;;;0.55;0.50;;;9.00;72.30;;;;;;5048734;28;20735;-75
2021/11/22 10:36:18;;;;;;;4.05;1.10;;;8.90;72.60;;;;;;5044507;28;20186;-76
2021/11/22 10:38:47;;;;;;;1.58;0.90;;;8.90;73.30;;;;;;5053965;28;20037;-78
2021/11/22 10:41:17;;;;;;;1.02;0.55;;;8.80;73.10;;;;;;5044941;28;20029;-76
2021/11/22 10:43:52;;;;;;;1.15;0.70;;;8.80;73.80;;;;;;5046709;28;20032;-75
2021/11/22 10:46:23;;;;;;;0.70;0.40;;;8.80;72.90;;;;;;5059196;28;20519;-74
2021/11/22 10:48:51;;;;;;;1.58;0.60;;;8.70;72.60;;;;;;5041127;28;20116;-76
2021/11/22 10:51:26;;;;;;;0.85;0.60;;;8.70;71.60;;;;;;5048569;28;20044;-73
2021/11/22 10:54:03;;;;;;;2.50;0.47;;;8.70;72.10;;;;;;5049534;28;20408;-76
2021/11/22 10:56:43;;;;;;;1.20;0.55;;;8.70;73.10;;;;;;5046747;28;20040;-75
2021/11/22 10:59:14;;;;;;;3.28;0.60;;;8.70;73.70;;;;;;5049336;28;20858;-75
2021/11/22 11:01:51;;;;;;;5.18;2.25;;;8.80;73.60;;;;;;5044961;28;20036;-73
2021/11/22 11:04:20;;;;;;;0.75;0.75;;;8.80;73.30;;;;;;5039998;28;20076;-74
2021/11/22 11:06:55;;;;;;;0.65;0.60;;;8.80;73.50;;;;;;5041811;28;20044;-73
2021/11/22 11:09:50;;;;;;;0.30;0.30;;;8.80;73.00;;;;;;5049480;28;20812;-73
2021/11/22 11:12:24;;;;;;;0.30;0.30;;;8.90;72.80;;;;;;5048663;28;20518;-75
2021/11/22 11:14:54;;;;;;;0.52;0.50;;;8.90;72.70;;;;;;5048566;28;20112;-75
2021/11/22 11:17:31;;;;;;;4.22;0.80;;;8.90;70.90;;;;;;5045635;28;20037;-75
2021/11/22 11:20:05;;;;;;;0.47;0.47;;;8.80;72.20;;;;;;5046114;28;20036;-73
2021/11/22 11:22:30;;;;;;;0.73;0.30;;;8.80;71.90;;;;;;5040410;28;20785;-72
2021/11/22 11:24:57;;;;;;;0.68;0.32;;;9.00;71.70;;;;;;5042540;28;20036;-72
2021/11/22 11:27:24;;;;;;;0.57;0.30;;;9.30;70.50;;;;;;5047753;28;20115;-72
2021/11/22 11:29:51;;;;;;;0.43;0.40;;;9.40;67.30;;;;;;5046275;28;20033;-68
2021/11/22 11:32:18;;;;;;;1.42;0.70;;;9.50;69.60;;;;;;5052810;28;20510;-73
2021/11/22 11:34:49;;;;;;;0.65;0.52;;;9.50;69.90;;;;;;5042055;28;20028;-73
2021/11/22 11:37:48;;;;;;;0.85;0.68;;;9.50;69.00;;;;;;5043502;28;20029;-73
2021/11/22 11:40:35;;;;;;;1.08;0.63;;;9.50;69.10;;;;;;5048801;28;20067;-73
2021/11/22 11:43:36;;;;;;;1.80;0.60;;;9.40;68.60;;;;;;5050288;28;20029;-73
2021/11/22 11:46:36;;;;;;;1.20;1.02;;;9.20;70.10;;;;;;5054806;28;20033;-73
2021/11/22 11:49:08;;;;;;;0.75;0.75;;;9.10;70.00;;;;;;5048546;28;20028;-73
2021/11/22 11:51:39;;;;;;;1.20;0.60;;;9.00;70.50;;;;;;5048108;28;20844;-73
2021/11/22 11:54:12;;;;;;;0.68;0.35;;;9.00;69.30;;;;;;5049135;28;20864;-73
2021/11/22 11:56:44;;;;;;;0.65;0.30;;;9.00;70.70;;;;;;5049970;28;20087;-72
2021/11/22 11:59:27;;;;;;;0.30;0.20;;;9.10;70.40;;;;;;5047630;28;20044;-74
2021/11/22 12:02:08;;;;;;;1.85;0.50;;;9.10;68.90;;;;;;5050592;28;20021;-75
2021/11/22 12:04:59;;;;;;;1.02;0.60;;;9.10;68.60;;;;;;5050213;28;20029;-73
2021/11/22 12:07:25;;;;;;;0.82;0.50;;;9.00;68.10;;;;;;5049901;28;20694;-74
2021/11/22 12:10:11;;;;;;;1.23;0.70;;;8.90;68.80;;;;;;5044491;28;20033;-73
2021/11/22 12:12:52;;;;;;;0.35;0.22;;;8.80;69.60;;;;;;5050367;28;20037;-73
2021/11/22 12:15:26;;;;;;;1.67;1.10;;;8.80;70.10;;;;;;5050132;28;20060;-73
2021/11/22 12:17:54;;;;;;;2.60;1.17;;;8.80;67.70;;;;;;5043673;28;20122;-73
2021/11/22 12:20:26;;;;;;;1.02;0.50;;;8.80;67.90;;;;;;5047056;28;20039;-73
2021/11/22 12:23:08;;;;;;;1.08;0.50;;;8.80;67.00;;;;;;5044788;28;20191;-73
2021/11/22 12:25:43;;;;;;;0.77;0.77;;;8.80;67.40;;;;;;5047396;28;20037;-73
2021/11/22 12:28:23;;;;;;;1.00;0.70;;;8.80;68.50;;;;;;5050745;28;20119;-74
2021/11/22 12:30:55;;;;;;;0.68;0.40;;;8.70;68.10;;;;;;5049605;28;20700;-73
2021/11/22 12:33:21;;;;;;;6.40;3.90;;;8.60;67.10;;;;;;5045083;28;20024;-67
2021/11/22 12:36:10;;;;;;;1.23;1.13;;;8.50;69.10;;;;;;5051262;28;20037;-67
2021/11/22 12:38:48;;;;;;;2.45;0.50;;;8.40;71.20;;;;;;5054935;28;20204;-67
2021/11/22 12:41:33;;;;;;;0.80;0.50;;;8.50;70.40;;;;;;5047916;28;20555;-67
2021/11/22 12:44:05;;;;;;;1.70;0.60;;;8.70;69.90;;;;;;5045165;28;20082;-67
2021/11/22 12:46:37;;;;;;;0.30;0.30;;;9.10;69.50;;;;;;5040982;28;20056;-67
2021/11/22 12:49:42;;;;;;;0.77;0.57;;;9.30;67.00;;;;;;5054277;28;20037;-66
2021/11/22 12:52:24;;;;;;;1.05;0.52;;;9.30;67.30;;;;;;5046597;28;20070;-66
2021/11/22 12:54:57;;;;;;;1.00;0.75;;;9.30;66.10;;;;;;5043056;28;20042;-67
2021/11/22 12:57:30;;;;;;;1.60;0.30;;;9.20;65.20;;;;;;5047861;28;20040;-67
2021/11/22 13:00:12;;;;;;;1.65;0.80;;;8.90;66.10;;;;;;5045426;28;20032;-67
2021/11/22 13:02:51;;;;;;;0.40;0.22;;;8.60;64.50;;;;;;5043694;28;20029;-66